createdAt,value
2023-05-02T00:01:32.820Z,100866.38
2023-05-02T00:06:35.968Z,100875.22
2023-05-02T00:11:37.741Z,100875.31
2023-05-02T00:16:39.521Z,100880.66
2023-05-02T00:21:42.637Z,100876.97
2023-05-02T00:26:44.352Z,100876.13
2023-05-02T00:31:46.065Z,100876.13
2023-05-02T00:36:49.438Z,100884.94
2023-05-02T00:41:56.607Z,100886.81
2023-05-02T00:46:58.498Z,100892.22
2023-05-02T00:52:02.523Z,100893.09
2023-05-02T00:57:04.394Z,100895.78
2023-05-02T01:02:12.740Z,100894.91
2023-05-02T01:07:37.577Z,100890.47
2023-05-02T01:12:41.974Z,100895.09
2023-05-02T01:17:44.422Z,100898.59
2023-05-02T01:22:47.917Z,100891.38
2023-05-02T01:27:54.342Z,100906.16
2023-05-02T01:32:57.912Z,100896.47
2023-05-02T01:37:59.707Z,100895.34
2023-05-02T01:43:04.184Z,100900.00
2023-05-02T01:48:07.915Z,100902.41
2023-05-02T01:53:11.255Z,100905.06
2023-05-02T01:58:13.255Z,100909.41
2023-05-02T02:03:16.505Z,100909.34
2023-05-02T02:08:18.298Z,100916.28
2023-05-02T02:13:25.779Z,100915.53
2023-05-02T02:18:29.386Z,100929.56
2023-05-02T02:23:31.214Z,100923.44
2023-05-02T02:28:34.004Z,100934.88
2023-05-02T02:33:37.117Z,100938.91
2023-05-02T02:38:42.196Z,100947.94
2023-05-02T02:43:48.046Z,100956.59
2023-05-02T02:48:58.770Z,100957.34
2023-05-02T02:54:05.900Z,100975.13
2023-05-02T02:59:14.277Z,100977.72
2023-05-02T03:04:17.514Z,100987.50
2023-05-02T03:09:19.282Z,100989.16
2023-05-02T03:14:23.563Z,100987.38
2023-05-02T03:19:27.357Z,100993.69
2023-05-02T03:24:29.627Z,100994.66
2023-05-02T03:29:31.485Z,100993.81
2023-05-02T03:34:34.663Z,101009.50
2023-05-02T03:39:36.730Z,101020.00
2023-05-02T03:44:39.265Z,101020.91
2023-05-02T03:49:42.490Z,101018.25
2023-05-02T03:54:44.700Z,101022.69
2023-05-02T03:59:47.250Z,101027.91
2023-05-02T04:05:00.170Z,101033.16
2023-05-02T04:10:02.167Z,101042.78
2023-05-02T04:15:08.762Z,101042.78
2023-05-02T04:20:12.502Z,101048.00
2023-05-02T04:25:18.648Z,101056.75
2023-05-02T04:30:21.376Z,101060.25
2023-05-02T04:35:34.039Z,101073.34
2023-05-02T04:40:36.950Z,101081.25
2023-05-02T04:45:41.423Z,101086.47
2023-05-02T04:50:52.403Z,101099.59
2023-05-02T04:55:55.754Z,101106.56
2023-05-02T05:00:58.190Z,101112.69
2023-05-02T05:06:02.274Z,101120.53
2023-05-02T05:11:05.153Z,101124.84
2023-05-02T05:16:07.862Z,101128.19
2023-05-02T05:21:11.182Z,101144.19
2023-05-02T05:26:15.199Z,101145.88
2023-05-02T05:31:19.944Z,101151.19
2023-05-02T05:36:26.653Z,101163.34
2023-05-02T05:41:28.388Z,101180.94
2023-05-02T05:46:36.297Z,101186.19
2023-05-02T05:51:41.266Z,101196.69
2023-05-02T05:56:43.310Z,101210.53
2023-05-02T06:01:48.718Z,101232.56
2023-05-02T06:06:54.306Z,101238.72
2023-05-02T06:11:56.122Z,101246.59
2023-05-02T06:16:59.054Z,101257.06
2023-05-02T06:22:03.493Z,101271.94
2023-05-02T06:27:05.524Z,101280.63
2023-05-02T06:32:07.258Z,101293.84
2023-05-02T06:37:10.930Z,101311.59
2023-05-02T06:42:13.072Z,101311.97
2023-05-02T06:47:14.898Z,101327.75
2023-05-02T06:52:17.995Z,101322.41
2023-05-02T06:57:19.674Z,101343.94
2023-05-02T07:02:22.177Z,101344.91
2023-05-02T07:07:25.508Z,101366.50
2023-05-02T07:12:27.690Z,101372.56
2023-05-02T07:17:29.506Z,101383.31
2023-05-02T07:22:32.783Z,101398.25
2023-05-02T07:27:34.782Z,101400.00
2023-05-02T07:32:36.474Z,101401.94
2023-05-02T07:37:39.613Z,101420.34
2023-05-02T07:42:41.910Z,101423.06
2023-05-02T07:47:43.795Z,101422.22
2023-05-02T07:52:46.958Z,101421.34
2023-05-02T07:57:49.821Z,101431.03
2023-05-02T08:02:51.637Z,101438.59
2023-05-02T08:07:54.872Z,101443.06
2023-05-02T08:12:56.964Z,101436.41
2023-05-02T08:17:59.795Z,101439.88
2023-05-02T08:23:03.061Z,101443.47
2023-05-02T08:28:04.762Z,101452.69
2023-05-02T08:33:06.499Z,101461.28
2023-05-02T08:38:09.914Z,101466.81
2023-05-02T08:43:11.785Z,101482.03
2023-05-02T08:48:13.761Z,101490.09
2023-05-02T08:53:16.885Z,101498.91
2023-05-02T08:58:18.592Z,101512.06
2023-05-02T09:03:23.986Z,101523.44
2023-05-02T09:08:27.403Z,101535.69
2023-05-02T09:13:33.764Z,101545.91
2023-05-02T09:18:36.364Z,101558.13
2023-05-02T09:23:41.039Z,101576.47
2023-05-02T09:28:43.595Z,101571.19
2023-05-02T09:33:45.642Z,101579.94
2023-05-02T09:38:49.693Z,101586.94
2023-05-02T09:43:58.080Z,101591.53
2023-05-02T09:48:59.797Z,101601.97
2023-05-02T09:54:03.252Z,101614.97
2023-05-02T09:59:16.935Z,101616.94
2023-05-02T10:04:19.485Z,101615.16
2023-05-02T10:09:22.736Z,101618.69
2023-05-02T10:14:27.806Z,101627.41
2023-05-02T10:19:33.664Z,101628.28
2023-05-02T10:24:37.220Z,101629.50
2023-05-02T10:29:39.126Z,101638.09
2023-05-02T10:34:41.674Z,101642.53
2023-05-02T10:39:44.757Z,101643.56
2023-05-02T10:44:46.632Z,101656.75
2023-05-02T10:49:50.138Z,101651.53
2023-05-02T10:54:59.834Z,101656.72
2023-05-02T11:00:22.720Z,101650.69
2023-05-02T11:05:24.835Z,101648.81
2023-05-02T11:10:28.279Z,101654.13
2023-05-02T11:15:53.987Z,101648.94
2023-05-02T11:21:24.958Z,101636.50
2023-05-02T11:26:28.827Z,101646.09
2023-05-02T11:32:03.816Z,101644.25
2023-05-02T11:37:11.357Z,101653.22
2023-05-02T11:47:46.377Z,101659.09
2023-05-02T11:52:48.150Z,101650.00
2023-05-02T11:57:49.864Z,101654.59
2023-05-02T12:02:52.983Z,101655.56
2023-05-02T12:07:54.764Z,101663.78
2023-05-02T12:13:04.135Z,101669.84
2023-05-02T12:18:07.234Z,101667.00
2023-05-02T12:23:09.958Z,101669.34
2023-05-02T12:28:11.719Z,101675.91
2023-05-02T12:33:15.686Z,101667.69
2023-05-02T12:38:18.170Z,101674.31
2023-05-02T12:43:20.095Z,101678.50
2023-05-02T12:48:24.600Z,101676.34
2023-05-02T12:53:40.457Z,101680.19
2023-05-02T12:58:43.084Z,101680.66
2023-05-02T13:03:46.727Z,101675.81
2023-05-02T13:08:48.451Z,101688.38
2023-05-02T13:13:50.141Z,101683.78
2023-05-02T13:18:53.225Z,101685.63
2023-05-02T13:23:55.408Z,101718.16
2023-05-02T13:28:57.184Z,101707.91
2023-05-02T13:34:00.418Z,101713.59
2023-05-02T13:39:02.100Z,101719.69
2023-05-02T13:44:04.004Z,101722.59
2023-05-02T13:49:07.140Z,101720.72
2023-05-02T13:54:08.840Z,101713.63
2023-05-02T13:59:11.386Z,101722.28
2023-05-02T14:04:14.533Z,101722.16
2023-05-02T14:09:16.989Z,101732.00
2023-05-02T14:14:18.700Z,101739.84
2023-05-02T14:19:21.786Z,101746.06
2023-05-02T14:24:23.512Z,101752.25
2023-05-02T14:29:25.210Z,101762.09
2023-05-02T14:34:28.295Z,101767.41
2023-05-02T14:39:30.020Z,101770.88
2023-05-02T14:44:31.785Z,101775.31
2023-05-02T14:49:35.186Z,101777.13
2023-05-02T14:54:37.025Z,101798.19
2023-05-02T14:59:38.814Z,101796.41
2023-05-02T15:04:41.883Z,101804.31
2023-05-02T15:09:43.557Z,101803.44
2023-05-02T15:14:45.625Z,101802.59
2023-05-02T15:19:48.685Z,101806.94
2023-05-02T15:24:50.391Z,101818.31
2023-05-02T15:29:52.071Z,101827.66
2023-05-02T15:34:55.383Z,101831.31
2023-05-02T15:39:57.107Z,101833.97
2023-05-02T15:44:59.048Z,101841.00
2023-05-02T15:50:02.387Z,101840.81
2023-05-02T15:55:05.113Z,101850.97
2023-05-02T16:00:11.170Z,101860.53
2023-05-02T16:05:14.515Z,101866.50
2023-05-02T16:10:16.206Z,101857.81
2023-05-02T16:15:17.936Z,101853.50
2023-05-02T16:20:21.266Z,101864.41
2023-05-02T16:25:23.011Z,101867.03
2023-05-02T16:30:24.748Z,101874.97
2023-05-02T16:35:27.864Z,101883.84
2023-05-02T16:40:29.627Z,101889.16
2023-05-02T16:45:31.518Z,101887.72
2023-05-02T16:50:34.575Z,101897.06
2023-05-02T16:55:36.378Z,101894.06
2023-05-02T17:00:38.437Z,101899.16
2023-05-02T17:05:41.708Z,101899.16
2023-05-02T17:10:48.190Z,101902.59
2023-05-02T17:15:49.940Z,101893.13
2023-05-02T17:20:53.193Z,101905.19
2023-05-02T17:25:54.915Z,101905.28
2023-05-02T17:30:59.051Z,101902.56
2023-05-02T17:36:02.262Z,101909.38
2023-05-02T17:41:04.117Z,101910.13
2023-05-02T17:46:09.471Z,101910.84
2023-05-02T17:51:12.614Z,101914.84
2023-05-02T17:56:16.227Z,101921.06
2023-05-02T18:01:18.122Z,101919.94
2023-05-02T18:06:21.611Z,101933.38
2023-05-02T18:11:24.234Z,101933.22
2023-05-02T18:16:26.123Z,101956.00
2023-05-02T18:21:30.841Z,101942.84
2023-05-02T18:26:32.579Z,101945.28
2023-05-02T18:31:35.935Z,101948.88
2023-05-02T18:36:39.475Z,101958.41
2023-05-02T18:41:41.236Z,101953.00
2023-05-02T18:46:43.110Z,101957.63
2023-05-02T18:51:46.363Z,101968.22
2023-05-02T18:56:49.205Z,101953.88
2023-05-02T19:01:51.143Z,101963.84
2023-05-02T19:06:54.280Z,101963.06
2023-05-02T19:11:56.205Z,101972.69
2023-05-02T19:16:57.955Z,101975.88
2023-05-02T19:22:01.129Z,101989.53
2023-05-02T19:27:06.372Z,101996.41
2023-05-02T19:32:08.214Z,102001.88
2023-05-02T19:37:11.454Z,102006.94
2023-05-02T19:42:13.174Z,102013.88
2023-05-02T19:47:14.907Z,102022.31
2023-05-02T19:52:17.983Z,102032.66
2023-05-02T19:57:19.694Z,102041.16
2023-05-02T20:02:22.025Z,102040.94
2023-05-02T20:07:25.096Z,102050.88
2023-05-02T20:12:26.821Z,102052.53
2023-05-02T20:17:29.203Z,102055.53
2023-05-02T20:22:32.626Z,102057.47
2023-05-02T20:27:34.357Z,102059.75
2023-05-02T20:32:36.259Z,102061.59
2023-05-02T20:37:39.365Z,102068.41
2023-05-02T20:42:42.359Z,102070.31
2023-05-02T20:47:44.127Z,102064.06
2023-05-02T20:52:47.143Z,102074.16
2023-05-02T20:57:52.756Z,102072.31
2023-05-02T21:02:54.607Z,102080.41
2023-05-02T21:07:57.732Z,102084.06
2023-05-02T21:12:59.577Z,102089.25
2023-05-02T21:18:01.637Z,102087.53
2023-05-02T21:23:04.744Z,102089.88
2023-05-02T21:28:06.471Z,102090.13
2023-05-02T21:33:08.344Z,102090.22
2023-05-02T21:38:11.400Z,102090.78
2023-05-02T21:43:13.466Z,102100.94
2023-05-02T21:48:15.651Z,102103.50
2023-05-02T21:53:18.698Z,102102.78
2023-05-02T21:58:20.459Z,102106.09
2023-05-02T22:03:23.312Z,102102.72
2023-05-02T22:08:27.185Z,102111.91
2023-05-02T22:13:29.180Z,102109.31
2023-05-02T22:18:30.906Z,102111.28
2023-05-02T22:23:33.962Z,102113.13
2023-05-02T22:28:35.711Z,102117.19
2023-05-02T22:33:37.408Z,102112.81
2023-05-02T22:38:40.509Z,102121.41
2023-05-02T22:43:42.469Z,102122.44
2023-05-02T22:48:44.224Z,102130.75
2023-05-02T22:53:49.329Z,102130.41
2023-05-02T22:58:51.292Z,102136.31
2023-05-02T23:03:53.257Z,102119.53
2023-05-02T23:08:56.553Z,102134.63
2023-05-02T23:13:58.283Z,102124.94
2023-05-02T23:19:00.122Z,102126.41
2023-05-02T23:24:03.310Z,102133.22
2023-05-02T23:29:06.285Z,102130.16
2023-05-02T23:34:08.002Z,102132.25
2023-05-02T23:39:11.125Z,102132.31
2023-05-02T23:44:12.838Z,102134.63
2023-05-02T23:49:14.564Z,102140.66
2023-05-02T23:54:17.881Z,102143.94
2023-05-02T23:59:19.623Z,102144.81
